createdAt,value
2018-05-03T00:00:08.028Z,99.90
2018-05-03T00:02:35.512Z,99.90
2018-05-03T00:05:04.124Z,99.90
2018-05-03T00:07:31.595Z,99.90
2018-05-03T00:09:59.080Z,99.90
2018-05-03T00:12:26.534Z,99.90
2018-05-03T00:14:54.013Z,99.90
2018-05-03T00:17:22.377Z,99.90
2018-05-03T00:19:49.837Z,99.90
2018-05-03T00:22:17.299Z,99.90
2018-05-03T00:24:44.808Z,99.90
2018-05-03T00:27:12.264Z,99.90
2018-05-03T00:29:39.725Z,99.90
2018-05-03T00:32:07.209Z,99.90
2018-05-03T00:34:34.668Z,99.90
2018-05-03T00:37:02.143Z,99.90
2018-05-03T00:39:30.400Z,99.90
2018-05-03T00:41:57.857Z,99.90
2018-05-03T00:44:25.330Z,99.90
2018-05-03T00:46:53.564Z,99.90
2018-05-03T00:49:21.030Z,99.90
2018-05-03T00:51:48.490Z,99.90
2018-05-03T00:54:27.977Z,99.90
2018-05-03T00:56:55.437Z,99.90
2018-05-03T00:59:22.908Z,99.90
2018-05-03T01:01:50.492Z,99.90
2018-05-03T01:04:17.949Z,99.90
2018-05-03T01:06:45.405Z,99.90
2018-05-03T01:09:12.896Z,99.90
2018-05-03T01:11:41.149Z,99.90
2018-05-03T01:14:08.604Z,99.90
2018-05-03T01:16:36.277Z,99.90
2018-05-03T01:19:03.724Z,99.90
2018-05-03T01:21:31.187Z,99.90
2018-05-03T01:23:58.673Z,99.90
2018-05-03T01:26:26.897Z,99.90
2018-05-03T01:28:54.352Z,99.90
2018-05-03T01:31:21.833Z,99.90
2018-05-03T01:33:49.293Z,99.90
2018-05-03T01:36:26.448Z,99.90
2018-05-03T01:38:53.926Z,99.90
2018-05-03T01:41:21.391Z,99.90
2018-05-03T01:43:48.941Z,99.90
2018-05-03T01:46:16.400Z,99.90
2018-05-03T01:48:43.906Z,99.90
2018-05-03T01:51:11.392Z,99.90
2018-05-03T01:53:38.878Z,99.90
2018-05-03T01:56:06.336Z,99.90
2018-05-03T01:58:34.597Z,99.90
2018-05-03T02:01:03.568Z,99.90
2018-05-03T02:03:31.050Z,99.90
2018-05-03T02:05:58.529Z,99.90
2018-05-03T02:08:26.752Z,99.90
2018-05-03T02:10:54.228Z,99.90
2018-05-03T02:13:21.693Z,99.90
2018-05-03T02:15:50.672Z,99.90
2018-05-03T02:18:18.156Z,99.90
2018-05-03T02:20:46.385Z,99.90
2018-05-03T02:23:13.861Z,99.90
2018-05-03T02:25:41.349Z,99.90
2018-05-03T02:28:09.582Z,99.90
2018-05-03T02:30:37.045Z,99.90
2018-05-03T02:33:04.554Z,99.90
2018-05-03T02:35:32.764Z,99.90
2018-05-03T02:38:00.225Z,99.90
2018-05-03T02:40:27.725Z,99.90
2018-05-03T02:42:55.945Z,99.90
2018-05-03T02:45:23.410Z,99.90
2018-05-03T02:47:50.991Z,99.90
2018-05-03T02:50:18.453Z,99.90
2018-05-03T02:52:46.733Z,99.90
2018-05-03T02:55:14.235Z,99.90
2018-05-03T02:57:59.218Z,99.90
2018-05-03T03:00:44.505Z,99.90
2018-05-03T03:03:29.922Z,99.90
2018-05-03T03:06:09.993Z,99.90
2018-05-03T03:08:55.300Z,99.90
2018-05-03T03:11:50.203Z,99.90
2018-05-03T03:14:36.280Z,99.90
2018-05-03T03:17:21.597Z,99.90
2018-05-03T03:20:15.654Z,99.90
2018-05-03T03:23:01.051Z,99.90
2018-05-03T03:25:45.029Z,99.90
2018-05-03T03:28:30.163Z,99.90
2018-05-03T03:31:27.104Z,99.90
2018-05-03T03:34:20.269Z,99.90
2018-05-03T03:37:26.344Z,99.90
2018-05-03T03:40:11.489Z,99.90
2018-05-03T03:45:46.183Z,99.90
2018-05-03T03:48:14.394Z,99.90
2018-05-03T03:50:41.875Z,99.90
2018-05-03T03:53:09.397Z,99.90
2018-05-03T03:55:37.568Z,99.90
2018-05-03T03:58:05.026Z,99.90
2018-05-03T04:00:32.631Z,99.90
2018-05-03T04:03:00.101Z,99.90
2018-05-03T04:05:27.549Z,99.90
2018-05-03T04:07:55.788Z,99.90
2018-05-03T04:10:23.261Z,99.90
2018-05-03T04:12:50.707Z,99.90
2018-05-03T04:15:18.389Z,99.90
2018-05-03T04:17:57.721Z,99.90
2018-05-03T04:20:40.021Z,99.90
2018-05-03T04:23:33.040Z,99.90
2018-05-03T04:26:04.048Z,99.90
2018-05-03T04:28:32.351Z,99.90
2018-05-03T04:30:59.810Z,99.90
2018-05-03T04:33:27.297Z,99.90
2018-05-03T04:35:54.770Z,99.90
2018-05-03T04:38:22.279Z,99.90
2018-05-03T04:40:49.837Z,99.90
2018-05-03T04:43:17.396Z,99.90
2018-05-03T04:45:44.833Z,99.90
2018-05-03T04:48:12.356Z,99.90
2018-05-03T04:50:40.585Z,99.90
2018-05-03T04:53:08.048Z,99.90
2018-05-03T04:55:35.649Z,99.90
2018-05-03T04:58:04.285Z,99.90
2018-05-03T05:00:31.852Z,99.90
2018-05-03T05:02:59.443Z,99.90
2018-05-03T05:05:26.905Z,99.90
2018-05-03T05:07:55.179Z,99.90
2018-05-03T05:10:22.664Z,99.90
2018-05-03T05:12:50.971Z,99.90
2018-05-03T05:15:18.449Z,99.90
2018-05-03T05:17:45.924Z,99.90
2018-05-03T05:20:14.206Z,99.90
2018-05-03T05:22:41.676Z,99.90
2018-05-03T05:25:09.922Z,99.90
2018-05-03T05:27:37.381Z,99.90
2018-05-03T05:30:04.882Z,99.90
2018-05-03T05:32:32.363Z,99.90
2018-05-03T05:34:59.829Z,99.90
2018-05-03T05:37:27.316Z,99.90
2018-05-03T05:39:54.769Z,99.90
2018-05-03T05:42:22.336Z,99.90
2018-05-03T05:44:49.796Z,99.90
2018-05-03T05:47:18.018Z,99.90
2018-05-03T05:49:45.648Z,99.90
2018-05-03T05:52:13.873Z,99.90
2018-05-03T05:54:41.338Z,99.90
2018-05-03T05:57:08.833Z,99.90
2018-05-03T05:59:37.060Z,99.90
2018-05-03T06:02:04.519Z,99.90
2018-05-03T06:04:32.103Z,99.90
2018-05-03T06:06:59.556Z,99.90
2018-05-03T06:09:27.013Z,99.90
2018-05-03T06:11:54.489Z,99.90
2018-05-03T06:14:22.733Z,99.90
2018-05-03T06:16:50.213Z,99.90
2018-05-03T06:19:17.689Z,99.90
2018-05-03T06:21:45.169Z,99.90
2018-05-03T06:24:12.625Z,99.90
2018-05-03T06:26:40.126Z,99.90
2018-05-03T06:29:07.572Z,99.90
2018-05-03T06:31:35.045Z,99.90
2018-05-03T06:34:03.327Z,99.90
2018-05-03T06:36:30.800Z,99.90
2018-05-03T06:38:59.195Z,99.90
2018-05-03T06:41:26.532Z,99.90
2018-05-03T06:43:54.757Z,99.90
2018-05-03T06:46:22.289Z,99.90
2018-05-03T06:48:49.752Z,99.90
2018-05-03T06:51:17.218Z,99.90
2018-05-03T06:53:44.676Z,99.90
2018-05-03T06:56:12.180Z,99.90
2018-05-03T06:58:40.499Z,99.90
2018-05-03T07:01:07.909Z,99.90
2018-05-03T07:03:35.384Z,99.90
2018-05-03T07:06:02.870Z,99.90
2018-05-03T07:08:30.335Z,99.90
2018-05-03T07:10:57.808Z,99.90
2018-05-03T07:13:25.260Z,99.90
2018-05-03T07:15:52.718Z,99.90
2018-05-03T07:18:20.226Z,99.90
2018-05-03T07:20:47.684Z,99.90
2018-05-03T07:23:15.157Z,99.90
2018-05-03T07:25:42.649Z,99.90
2018-05-03T07:28:10.109Z,99.90
2018-05-03T07:30:37.564Z,99.90
2018-05-03T07:33:05.057Z,99.90
2018-05-03T07:35:33.278Z,99.90
2018-05-03T07:38:00.752Z,99.90
2018-05-03T07:40:28.234Z,99.90
2018-05-03T07:42:56.456Z,99.90
2018-05-03T07:45:23.914Z,99.90
2018-05-03T07:47:51.388Z,99.90
2018-05-03T07:50:18.864Z,99.90
2018-05-03T07:52:46.326Z,99.90
2018-05-03T07:55:13.809Z,99.90
2018-05-03T07:57:41.287Z,99.90
2018-05-03T08:00:08.739Z,99.90
2018-05-03T08:02:36.249Z,99.90
2018-05-03T08:05:03.723Z,99.90
2018-05-03T08:07:31.965Z,99.90
2018-05-03T08:09:59.433Z,99.90
2018-05-03T08:12:26.894Z,99.90
2018-05-03T08:14:54.548Z,99.90
2018-05-03T08:17:22.013Z,99.90
2018-05-03T08:19:49.475Z,99.90
2018-05-03T08:22:17.034Z,99.90
2018-05-03T08:24:44.465Z,99.90
2018-05-03T08:27:11.925Z,99.90
2018-05-03T08:29:39.520Z,99.90
2018-05-03T08:32:07.751Z,99.90
2018-05-03T08:34:35.213Z,99.90
2018-05-03T08:37:02.691Z,99.90
2018-05-03T08:39:30.153Z,99.90
2018-05-03T08:41:58.403Z,99.90
2018-05-03T08:44:25.865Z,99.90
2018-05-03T08:46:53.345Z,99.90
2018-05-03T08:49:21.578Z,99.90
2018-05-03T08:51:49.048Z,99.90
2018-05-03T08:54:16.512Z,99.90
2018-05-03T08:56:44.011Z,99.90
2018-05-03T08:59:11.478Z,99.90
2018-05-03T09:01:39.098Z,99.90
2018-05-03T09:04:06.533Z,99.90
2018-05-03T09:06:33.997Z,99.90
2018-05-03T09:09:01.509Z,99.90
2018-05-03T09:11:29.069Z,99.90
2018-05-03T09:13:56.626Z,99.90
2018-05-03T09:16:24.110Z,99.90
2018-05-03T09:18:51.580Z,99.90
2018-05-03T09:21:19.037Z,99.90
2018-05-03T09:23:46.532Z,99.90
2018-05-03T09:26:14.746Z,99.10
2018-05-03T09:28:42.206Z,99.10
2018-05-03T09:31:09.676Z,96.20
2018-05-03T09:33:37.136Z,95.00
2018-05-03T09:36:04.585Z,92.70
2018-05-03T09:38:32.071Z,88.80
2018-05-03T09:41:00.292Z,82.70
2018-05-03T09:43:27.749Z,82.50
2018-05-03T09:45:55.220Z,79.00
2018-05-03T09:48:22.703Z,78.50
2018-05-03T09:50:50.144Z,78.20
2018-05-03T09:53:17.636Z,72.70
2018-05-03T09:55:45.880Z,71.30
2018-05-03T09:58:13.336Z,71.20
2018-05-03T10:00:40.813Z,68.40
2018-05-03T10:03:09.033Z,64.60
2018-05-03T10:05:36.504Z,64.50
2018-05-03T10:08:03.999Z,63.20
2018-05-03T10:10:32.236Z,61.40
2018-05-03T10:12:59.700Z,61.30
2018-05-03T10:15:27.190Z,61.00
2018-05-03T10:17:55.427Z,58.10
2018-05-03T10:20:22.971Z,58.10
2018-05-03T10:22:50.444Z,57.10
2018-05-03T10:25:17.977Z,57.80
2018-05-03T10:27:45.448Z,57.30
2018-05-03T10:30:12.949Z,54.10
2018-05-03T10:32:40.376Z,57.00
2018-05-03T10:35:07.847Z,56.30
2018-05-03T10:37:36.941Z,56.50
2018-05-03T10:40:04.405Z,56.50
2018-05-03T10:42:31.861Z,57.80
2018-05-03T10:44:59.335Z,55.80
2018-05-03T10:47:27.551Z,56.40
2018-05-03T10:49:55.020Z,56.50
2018-05-03T10:52:22.525Z,53.00
2018-05-03T10:54:50.775Z,54.30
2018-05-03T10:57:19.043Z,54.40
2018-05-03T10:59:46.528Z,54.40
2018-05-03T11:02:14.764Z,53.50
2018-05-03T11:04:42.222Z,53.50
2018-05-03T11:07:09.712Z,52.80
2018-05-03T11:09:37.936Z,54.00
2018-05-03T11:12:05.410Z,53.30
2018-05-03T11:14:32.957Z,53.20
2018-05-03T11:17:00.360Z,56.10
2018-05-03T11:19:27.812Z,55.90
2018-05-03T11:21:56.065Z,55.00
2018-05-03T11:24:25.042Z,55.00
2018-05-03T11:26:52.500Z,55.00
2018-05-03T11:29:19.995Z,53.70
2018-05-03T11:31:48.222Z,54.60
2018-05-03T11:34:15.675Z,54.70
2018-05-03T11:36:43.248Z,53.70
2018-05-03T11:39:10.632Z,55.20
2018-05-03T11:41:38.871Z,54.60
2018-05-03T11:44:06.359Z,54.50
2018-05-03T11:46:33.836Z,55.00
2018-05-03T11:49:02.061Z,55.00
2018-05-03T11:51:29.546Z,55.00
2018-05-03T11:53:57.000Z,54.80
2018-05-03T11:56:24.461Z,52.60
2018-05-03T11:58:52.121Z,52.70
2018-05-03T12:01:19.602Z,54.20
2018-05-03T12:03:47.821Z,51.80
2018-05-03T12:06:15.495Z,51.70
2018-05-03T12:08:42.957Z,52.90
2018-05-03T12:11:10.412Z,53.70
2018-05-03T12:13:37.897Z,55.40
2018-05-03T12:16:06.129Z,54.20
2018-05-03T12:18:33.581Z,54.20
2018-05-03T12:21:01.078Z,55.10
2018-05-03T12:23:29.304Z,57.00
2018-05-03T12:25:56.773Z,56.60
2018-05-03T12:28:24.346Z,57.80
2018-05-03T12:30:51.816Z,57.70
2018-05-03T12:33:20.791Z,56.50
2018-05-03T12:35:48.285Z,56.50
2018-05-03T12:38:16.513Z,57.10
2018-05-03T12:40:43.976Z,57.00
2018-05-03T12:43:11.453Z,55.90
2018-05-03T12:45:39.774Z,55.70
2018-05-03T12:48:07.344Z,55.40
2018-05-03T12:50:35.155Z,56.10
2018-05-03T12:53:03.432Z,55.90
2018-05-03T12:55:30.885Z,55.80
2018-05-03T12:57:58.365Z,54.50
2018-05-03T13:00:25.828Z,53.00
2018-05-03T13:02:53.285Z,54.10
2018-05-03T13:05:20.772Z,56.20
2018-05-03T13:07:48.234Z,56.50
2018-05-03T13:10:15.689Z,55.30
2018-05-03T13:12:43.169Z,56.30
2018-05-03T13:15:10.613Z,56.80
2018-05-03T13:17:38.078Z,57.00
2018-05-03T13:20:05.666Z,55.80
2018-05-03T13:22:33.154Z,55.70
2018-05-03T13:25:00.609Z,57.10
2018-05-03T13:27:28.096Z,57.60
2018-05-03T13:29:56.321Z,56.90
2018-05-03T13:32:23.774Z,57.30
2018-05-03T13:34:52.124Z,56.50
2018-05-03T13:37:20.361Z,56.00
2018-05-03T13:39:47.812Z,56.00
2018-05-03T13:42:15.290Z,56.20
2018-05-03T13:44:42.744Z,57.40
2018-05-03T13:47:10.200Z,56.90
2018-05-03T13:49:37.689Z,55.90
2018-05-03T13:52:05.925Z,55.80
2018-05-03T13:54:33.385Z,55.30
2018-05-03T13:57:00.912Z,53.90
2018-05-03T13:59:28.339Z,53.60
2018-05-03T14:01:56.557Z,53.90
2018-05-03T14:04:24.036Z,53.90
2018-05-03T14:06:51.502Z,52.90
2018-05-03T14:09:18.969Z,51.00
2018-05-03T14:11:46.449Z,52.90
2018-05-03T14:14:14.689Z,57.20
2018-05-03T14:16:42.173Z,57.20
2018-05-03T14:19:10.434Z,59.30
2018-05-03T14:21:37.889Z,59.20
2018-05-03T14:24:05.344Z,58.60
2018-05-03T14:26:32.839Z,58.90
2018-05-03T14:29:01.061Z,57.50
2018-05-03T14:31:28.529Z,57.40
2018-05-03T14:33:56.006Z,56.50
2018-05-03T14:36:24.318Z,54.70
2018-05-03T14:38:51.883Z,54.60
2018-05-03T14:41:19.364Z,57.30
2018-05-03T14:43:46.860Z,58.00
2018-05-03T14:46:15.089Z,56.80
2018-05-03T14:48:42.576Z,56.80
2018-05-03T14:51:10.034Z,56.80
2018-05-03T14:53:37.494Z,54.90
2018-05-03T14:56:05.766Z,58.30
2018-05-03T14:58:33.217Z,58.30
2018-05-03T15:01:00.742Z,59.60
2018-05-03T15:03:28.181Z,60.40
2018-05-03T15:05:55.692Z,59.80
2018-05-03T15:08:24.809Z,61.20
2018-05-03T15:10:53.064Z,60.70
2018-05-03T15:13:21.893Z,61.40
2018-05-03T15:15:50.516Z,60.60
2018-05-03T15:18:18.779Z,61.10
2018-05-03T15:20:46.335Z,61.10
2018-05-03T15:23:14.344Z,59.90
2018-05-03T15:25:42.587Z,59.80
2018-05-03T15:28:10.115Z,59.80
2018-05-03T15:30:37.673Z,60.00
2018-05-03T15:33:05.182Z,61.90
2018-05-03T15:35:32.665Z,59.60
2018-05-03T15:38:00.979Z,60.30
2018-05-03T15:40:28.445Z,60.30
2018-05-03T15:42:55.901Z,61.10
2018-05-03T15:45:23.378Z,60.50
2018-05-03T15:47:51.712Z,60.20
2018-05-03T15:50:19.358Z,59.10
2018-05-03T15:52:46.725Z,59.90
2018-05-03T15:55:14.209Z,58.80
2018-05-03T15:57:41.673Z,60.90
2018-05-03T16:00:09.133Z,60.90
2018-05-03T16:02:39.079Z,61.40
2018-05-03T16:05:07.324Z,60.40
2018-05-03T16:07:36.354Z,61.90
2018-05-03T16:10:03.934Z,61.90
2018-05-03T16:12:32.122Z,61.40
2018-05-03T16:14:59.584Z,62.10
2018-05-03T16:17:27.064Z,61.60
2018-05-03T16:19:54.531Z,61.40
2018-05-03T16:22:22.005Z,61.00
2018-05-03T16:24:50.282Z,63.40
2018-05-03T16:27:18.506Z,64.80
2018-05-03T16:29:45.964Z,64.70
2018-05-03T16:32:13.641Z,63.90
2018-05-03T16:34:41.110Z,64.80
2018-05-03T16:37:08.594Z,62.90
2018-05-03T16:39:36.848Z,64.10
2018-05-03T16:42:05.284Z,64.00
2018-05-03T16:44:32.765Z,63.70
2018-05-03T16:47:00.287Z,63.60
2018-05-03T16:49:27.757Z,64.20
2018-05-03T16:51:56.287Z,64.20
2018-05-03T16:54:24.561Z,64.30
2018-05-03T16:56:52.833Z,64.10
2018-05-03T16:59:20.312Z,64.20
2018-05-03T17:01:48.667Z,64.80
2018-05-03T17:04:16.905Z,64.60
2018-05-03T17:06:44.392Z,63.90
2018-05-03T17:09:11.907Z,64.00
2018-05-03T17:11:39.376Z,64.90
2018-05-03T17:14:06.910Z,64.70
2018-05-03T17:16:34.315Z,64.20
2018-05-03T17:19:01.772Z,62.80
2018-05-03T17:21:29.224Z,64.60
2018-05-03T17:23:56.703Z,64.00
2018-05-03T17:26:25.012Z,64.80
2018-05-03T17:28:52.686Z,64.80
2018-05-03T17:31:20.168Z,64.70
2018-05-03T17:33:47.664Z,64.70
2018-05-03T17:36:15.964Z,65.50
2018-05-03T17:38:44.006Z,65.50
2018-05-03T17:41:12.227Z,66.90
2018-05-03T17:43:39.710Z,66.90
2018-05-03T17:46:07.196Z,66.90
2018-05-03T17:48:34.667Z,66.00
2018-05-03T17:51:02.215Z,66.20
2018-05-03T17:53:29.624Z,66.70
2018-05-03T17:56:08.725Z,67.50
2018-05-03T17:58:36.201Z,67.20
2018-05-03T18:01:03.662Z,67.10
2018-05-03T18:03:31.710Z,67.40
2018-05-03T18:05:59.311Z,67.80
2018-05-03T18:08:26.779Z,69.20
2018-05-03T18:10:54.314Z,69.60
2018-05-03T18:13:22.496Z,70.50
2018-05-03T18:15:51.544Z,70.90
2018-05-03T18:18:18.942Z,71.60
2018-05-03T18:20:51.425Z,70.90
2018-05-03T18:23:18.898Z,71.90
2018-05-03T18:25:47.126Z,73.40
2018-05-03T18:28:14.665Z,73.40
2018-05-03T18:30:42.080Z,74.00
2018-05-03T18:33:10.325Z,75.20
2018-05-03T18:35:37.997Z,75.20
2018-05-03T18:38:05.542Z,75.00
2018-05-03T18:40:32.976Z,76.00
2018-05-03T18:43:00.482Z,76.90
2018-05-03T18:45:28.728Z,77.80
2018-05-03T18:47:56.192Z,77.70
2018-05-03T18:50:23.860Z,77.50
2018-05-03T18:52:51.332Z,77.50
2018-05-03T18:55:19.563Z,78.40
2018-05-03T18:57:47.415Z,78.30
2018-05-03T19:00:14.874Z,78.50
2018-05-03T19:02:42.358Z,79.20
2018-05-03T19:05:09.830Z,79.70
2018-05-03T19:07:37.361Z,80.40
2018-05-03T19:10:05.536Z,82.10
2018-05-03T19:12:33.021Z,82.00
2018-05-03T19:15:00.630Z,82.90
2018-05-03T19:17:28.084Z,85.00
2018-05-03T19:19:55.573Z,86.00
2018-05-03T19:22:23.101Z,86.90
2018-05-03T19:24:50.557Z,88.40
2018-05-03T19:27:18.051Z,89.60
2018-05-03T19:29:45.519Z,89.80
2018-05-03T19:32:13.765Z,90.20
2018-05-03T19:34:41.254Z,90.30
2018-05-03T19:37:08.760Z,90.50
2018-05-03T19:39:36.320Z,90.80
2018-05-03T19:42:03.820Z,91.90
2018-05-03T19:44:31.284Z,92.40
2018-05-03T19:46:58.736Z,92.80
2018-05-03T19:49:26.225Z,93.20
2018-05-03T19:51:53.702Z,94.00
2018-05-03T19:54:21.157Z,94.00
2018-05-03T19:56:48.678Z,94.70
2018-05-03T19:59:16.138Z,94.90
2018-05-03T20:01:44.367Z,95.50
2018-05-03T20:04:11.908Z,95.50
2018-05-03T20:06:39.390Z,96.10
2018-05-03T20:09:06.869Z,96.60
2018-05-03T20:11:34.378Z,97.10
2018-05-03T20:14:01.833Z,97.40
2018-05-03T20:16:29.315Z,97.60
2018-05-03T20:18:56.790Z,98.30
2018-05-03T20:21:24.269Z,98.50
2018-05-03T20:23:52.570Z,99.90
2018-05-03T20:26:20.947Z,99.90
2018-05-03T20:28:49.231Z,99.90
2018-05-03T20:31:16.719Z,99.90
2018-05-03T20:33:44.244Z,99.90
2018-05-03T20:36:15.527Z,99.90
2018-05-03T20:38:43.003Z,99.90
2018-05-03T20:41:10.500Z,99.90
2018-05-03T20:43:37.964Z,99.90
2018-05-03T20:46:05.552Z,99.90
2018-05-03T20:48:33.720Z,99.90
2018-05-03T20:51:01.258Z,99.90
2018-05-03T20:53:28.762Z,99.90
2018-05-03T20:55:56.226Z,99.90
2018-05-03T20:58:23.715Z,99.90
2018-05-03T21:00:51.197Z,99.90
2018-05-03T21:03:18.651Z,99.90
2018-05-03T21:05:46.130Z,99.90
2018-05-03T21:08:13.653Z,99.90
2018-05-03T21:10:41.141Z,99.90
2018-05-03T21:13:08.604Z,99.90
2018-05-03T21:15:36.092Z,99.90
2018-05-03T21:18:04.313Z,99.90
2018-05-03T21:20:31.786Z,99.90
2018-05-03T21:23:00.045Z,99.90
2018-05-03T21:25:27.508Z,99.90
2018-05-03T21:27:54.988Z,99.90
2018-05-03T21:30:24.080Z,99.90
2018-05-03T21:32:51.560Z,99.90
2018-05-03T21:35:19.772Z,99.90
2018-05-03T21:37:47.253Z,99.90
2018-05-03T21:40:14.716Z,99.90
2018-05-03T21:42:42.198Z,99.90
2018-05-03T21:45:09.671Z,99.90
2018-05-03T21:47:37.133Z,99.90
2018-05-03T21:50:04.592Z,99.90
2018-05-03T21:52:32.079Z,99.90
2018-05-03T21:54:59.544Z,99.90
2018-05-03T21:57:26.997Z,99.90
2018-05-03T21:59:54.473Z,99.90
2018-05-03T22:02:23.445Z,99.90
2018-05-03T22:04:50.922Z,99.90
2018-05-03T22:07:18.386Z,99.90
2018-05-03T22:09:45.862Z,99.90
2018-05-03T22:12:14.097Z,99.90
2018-05-03T22:14:41.568Z,99.90
2018-05-03T22:17:09.030Z,99.90
2018-05-03T22:19:37.256Z,99.90
2018-05-03T22:22:05.508Z,99.90
2018-05-03T22:24:32.975Z,99.90
2018-05-03T22:27:00.468Z,99.90
2018-05-03T22:29:27.973Z,99.90
2018-05-03T22:31:56.193Z,99.90
2018-05-03T22:34:23.660Z,99.90
2018-05-03T22:36:51.109Z,99.90
2018-05-03T22:39:18.596Z,99.90
2018-05-03T22:41:46.288Z,99.90
2018-05-03T22:44:14.514Z,99.90
2018-05-03T22:46:41.964Z,99.90
2018-05-03T22:49:09.442Z,99.90
2018-05-03T22:51:36.920Z,99.90
2018-05-03T22:54:05.165Z,99.90
2018-05-03T22:56:32.648Z,99.90
2018-05-03T22:59:00.881Z,99.90
2018-05-03T23:01:28.415Z,99.90
2018-05-03T23:03:55.885Z,99.90
2018-05-03T23:06:23.349Z,99.90
2018-05-03T23:08:50.808Z,99.90
2018-05-03T23:11:18.264Z,99.90
2018-05-03T23:13:45.729Z,99.90
2018-05-03T23:16:13.197Z,99.90
2018-05-03T23:18:40.681Z,99.90
2018-05-03T23:21:08.902Z,99.90
2018-05-03T23:23:36.389Z,99.90
2018-05-03T23:26:03.841Z,99.90
2018-05-03T23:28:31.316Z,99.90
2018-05-03T23:30:59.537Z,99.90
2018-05-03T23:33:28.325Z,99.90
2018-05-03T23:35:55.773Z,99.90
2018-05-03T23:38:23.328Z,99.90
2018-05-03T23:40:50.889Z,99.90
2018-05-03T23:43:18.389Z,99.90
2018-05-03T23:45:45.841Z,99.90
2018-05-03T23:48:13.321Z,99.90
2018-05-03T23:50:41.566Z,99.90
2018-05-03T23:53:09.037Z,99.90
2018-05-03T23:55:37.263Z,99.90
2018-05-03T23:58:04.766Z,99.90
